sensor_id;sensor_type;location;lat;lon;timestamp;pressure;altitude;pressure_sealevel;temperature;humidity
51081;BME280;37130;55.670;37.596;2023-04-24T04:51:33;99561.56;;;29.04;24.35
51081;BME280;37130;55.670;37.596;2023-04-24T04:54:02;99545.72;;;29.36;22.84
51081;BME280;37130;55.670;37.596;2023-04-24T04:56:30;99562.88;;;29.73;21.68
51081;BME280;37130;55.670;37.596;2023-04-24T04:59:00;99544.81;;;29.72;21.14
51081;BME280;37130;55.670;37.596;2023-04-24T05:01:27;99572.25;;;29.91;20.76
51081;BME280;37130;55.670;37.596;2023-04-24T05:03:55;99572.75;;;30.02;20.69
51081;BME280;37130;55.670;37.596;2023-04-24T05:06:23;99566.69;;;30.34;19.96
51081;BME280;37130;55.670;37.596;2023-04-24T05:08:52;99569.72;;;30.53;19.62
51081;BME280;37130;55.670;37.596;2023-04-24T05:11:47;99563.03;;;30.69;19.48
51081;BME280;37130;55.670;37.596;2023-04-24T05:14:15;99567.09;;;30.86;19.00
51081;BME280;37130;55.670;37.596;2023-04-24T05:16:45;99569.94;;;31.13;18.59
51081;BME280;37130;55.670;37.596;2023-04-24T05:19:16;99557.28;;;31.05;18.61
51081;BME280;37130;55.670;37.596;2023-04-24T05:21:45;99578.84;;;31.41;18.47
51081;BME280;37130;55.670;37.596;2023-04-24T05:24:13;99570.00;;;31.59;18.24
51081;BME280;37130;55.670;37.596;2023-04-24T05:27:13;99570.66;;;31.55;18.22
51081;BME280;37130;55.670;37.596;2023-04-24T05:29:41;99568.34;;;31.65;18.01
51081;BME280;37130;55.670;37.596;2023-04-24T05:32:09;99577.78;;;31.69;17.98
51081;BME280;37130;55.670;37.596;2023-04-24T05:34:37;99572.91;;;31.91;17.51
51081;BME280;37130;55.670;37.596;2023-04-24T05:37:05;99572.91;;;32.31;17.65
51081;BME280;37130;55.670;37.596;2023-04-24T05:39:35;99571.88;;;32.25;17.42
51081;BME280;37130;55.670;37.596;2023-04-24T05:42:03;99564.19;;;32.41;17.09
51081;BME280;37130;55.670;37.596;2023-04-24T05:44:31;99559.38;;;32.49;17.10
51081;BME280;37130;55.670;37.596;2023-04-24T05:46:59;99571.19;;;32.50;17.13
51081;BME280;37130;55.670;37.596;2023-04-24T05:49:28;99580.66;;;32.47;16.78
51081;BME280;37130;55.670;37.596;2023-04-24T05:51:57;99563.56;;;32.45;16.31
51081;BME280;37130;55.670;37.596;2023-04-24T05:54:24;99570.09;;;32.51;16.69
51081;BME280;37130;55.670;37.596;2023-04-24T05:56:52;99570.22;;;32.69;16.53
51081;BME280;37130;55.670;37.596;2023-04-24T05:59:33;99569.34;;;32.82;16.22
51081;BME280;37130;55.670;37.596;2023-04-24T06:02:00;99563.53;;;32.59;16.51
51081;BME280;37130;55.670;37.596;2023-04-24T06:04:28;99569.28;;;32.50;16.50
51081;BME280;37130;55.670;37.596;2023-04-24T06:06:58;99571.13;;;32.63;16.71
51081;BME280;37130;55.670;37.596;2023-04-24T06:09:26;99567.41;;;32.89;16.41
51081;BME280;37130;55.670;37.596;2023-04-24T06:11:54;99569.81;;;33.17;15.96
51081;BME280;37130;55.670;37.596;2023-04-24T06:14:26;99566.78;;;33.26;15.73
51081;BME280;37130;55.670;37.596;2023-04-24T06:17:14;99549.28;;;32.88;15.87
51081;BME280;37130;55.670;37.596;2023-04-24T06:19:42;99565.09;;;32.86;15.69
51081;BME280;37130;55.670;37.596;2023-04-24T06:22:10;99567.53;;;33.08;15.65
51081;BME280;37130;55.670;37.596;2023-04-24T06:24:39;99571.34;;;33.07;15.57
51081;BME280;37130;55.670;37.596;2023-04-24T06:27:07;99579.00;;;32.91;15.48
51081;BME280;37130;55.670;37.596;2023-04-24T06:29:35;99571.44;;;32.80;15.40
51081;BME280;37130;55.670;37.596;2023-04-24T06:32:03;99563.72;;;32.70;15.70
51081;BME280;37130;55.670;37.596;2023-04-24T06:34:32;99572.72;;;32.84;15.94
51081;BME280;37130;55.670;37.596;2023-04-24T06:37:01;99575.00;;;32.87;15.69
51081;BME280;37130;55.670;37.596;2023-04-24T06:39:29;99527.34;;;32.82;15.93
51081;BME280;37130;55.670;37.596;2023-04-24T06:41:57;99574.69;;;33.09;15.77
51081;BME280;37130;55.670;37.596;2023-04-24T06:44:24;99549.22;;;33.33;15.37
51081;BME280;37130;55.670;37.596;2023-04-24T06:46:52;99575.41;;;33.61;15.51
51081;BME280;37130;55.670;37.596;2023-04-24T06:49:20;99578.91;;;33.75;15.01
51081;BME280;37130;55.670;37.596;2023-04-24T06:51:47;99560.47;;;33.57;15.12
51081;BME280;37130;55.670;37.596;2023-04-24T06:54:15;99569.94;;;33.61;14.59
51081;BME280;37130;55.670;37.596;2023-04-24T06:56:42;99581.09;;;33.66;15.05
51081;BME280;37130;55.670;37.596;2023-04-24T06:59:12;99578.03;;;33.74;15.14
51081;BME280;37130;55.670;37.596;2023-04-24T07:01:40;99578.38;;;33.85;15.05
51081;BME280;37130;55.670;37.596;2023-04-24T07:04:08;99556.81;;;33.63;15.29
51081;BME280;37130;55.670;37.596;2023-04-24T07:06:35;99580.13;;;33.79;15.12
51081;BME280;37130;55.670;37.596;2023-04-24T07:09:04;99585.63;;;33.79;14.82
51081;BME280;37130;55.670;37.596;2023-04-24T07:11:32;99589.81;;;33.81;15.13
51081;BME280;37130;55.670;37.596;2023-04-24T07:14:01;99580.84;;;33.93;14.60
51081;BME280;37130;55.670;37.596;2023-04-24T07:16:28;99537.78;;;33.36;15.07
51081;BME280;37130;55.670;37.596;2023-04-24T07:18:56;99590.78;;;33.69;14.65
51081;BME280;37130;55.670;37.596;2023-04-24T07:21:24;99596.63;;;33.79;15.01
51081;BME280;37130;55.670;37.596;2023-04-24T07:23:52;99567.63;;;33.58;14.81
51081;BME280;37130;55.670;37.596;2023-04-24T07:26:20;99592.81;;;33.55;14.62
51081;BME280;37130;55.670;37.596;2023-04-24T07:28:48;99566.41;;;33.47;14.76
51081;BME280;37130;55.670;37.596;2023-04-24T07:31:16;99591.63;;;33.37;14.82
51081;BME280;37130;55.670;37.596;2023-04-24T07:33:43;99591.69;;;33.31;14.72
51081;BME280;37130;55.670;37.596;2023-04-24T07:36:11;99590.13;;;33.42;14.41
51081;BME280;37130;55.670;37.596;2023-04-24T07:38:43;99572.47;;;33.31;15.03
51081;BME280;37130;55.670;37.596;2023-04-24T07:41:13;99556.41;;;32.96;14.75
51081;BME280;37130;55.670;37.596;2023-04-24T07:43:41;99548.53;;;32.61;14.78
51081;BME280;37130;55.670;37.596;2023-04-24T07:46:08;99574.63;;;32.84;15.14
51081;BME280;37130;55.670;37.596;2023-04-24T07:48:37;99574.88;;;32.76;15.00
51081;BME280;37130;55.670;37.596;2023-04-24T07:51:04;99580.69;;;32.34;14.79
51081;BME280;37130;55.670;37.596;2023-04-24T07:53:31;99589.72;;;32.55;15.22
51081;BME280;37130;55.670;37.596;2023-04-24T07:55:59;99579.72;;;32.73;14.81
51081;BME280;37130;55.670;37.596;2023-04-24T07:58:27;99590.84;;;32.85;14.67
51081;BME280;37130;55.670;37.596;2023-04-24T08:00:55;99568.31;;;32.77;14.16
51081;BME280;37130;55.670;37.596;2023-04-24T08:03:22;99581.78;;;32.06;15.13
51081;BME280;37130;55.670;37.596;2023-04-24T08:05:51;99570.16;;;32.31;14.81
51081;BME280;37130;55.670;37.596;2023-04-24T08:08:21;99565.22;;;32.60;15.13
51081;BME280;37130;55.670;37.596;2023-04-24T08:10:49;99563.34;;;32.53;15.03
51081;BME280;37130;55.670;37.596;2023-04-24T08:13:17;99576.72;;;32.17;15.02
51081;BME280;37130;55.670;37.596;2023-04-24T08:15:45;99580.53;;;30.33;15.38
51081;BME280;37130;55.670;37.596;2023-04-24T08:18:12;99576.22;;;28.37;15.91
51081;BME280;37130;55.670;37.596;2023-04-24T08:20:40;99561.81;;;27.00;16.56
51081;BME280;37130;55.670;37.596;2023-04-24T08:23:08;99546.31;;;27.31;16.99
51081;BME280;37130;55.670;37.596;2023-04-24T08:25:35;99560.91;;;28.66;16.21
51081;BME280;37130;55.670;37.596;2023-04-24T08:28:06;99555.97;;;29.55;15.90
51081;BME280;37130;55.670;37.596;2023-04-24T08:30:33;99559.72;;;30.04;15.76
51081;BME280;37130;55.670;37.596;2023-04-24T08:33:01;99556.88;;;30.53;15.54
51081;BME280;37130;55.670;37.596;2023-04-24T08:35:29;99543.00;;;30.13;15.30
51081;BME280;37130;55.670;37.596;2023-04-24T08:37:57;99545.41;;;29.95;15.52
51081;BME280;37130;55.670;37.596;2023-04-24T08:40:28;99498.72;;;29.62;15.89
51081;BME280;37130;55.670;37.596;2023-04-24T08:42:59;99475.66;;;29.15;15.96
51081;BME280;37130;55.670;37.596;2023-04-24T08:45:26;99545.25;;;27.93;16.77
51081;BME280;37130;55.670;37.596;2023-04-24T08:47:54;99517.63;;;26.35;17.41
51081;BME280;37130;55.670;37.596;2023-04-24T08:50:22;99541.91;;;25.56;18.49
51081;BME280;37130;55.670;37.596;2023-04-24T08:52:50;99539.47;;;24.88;19.23
51081;BME280;37130;55.670;37.596;2023-04-24T08:55:20;99521.56;;;25.03;19.86
51081;BME280;37130;55.670;37.596;2023-04-24T08:57:51;99522.41;;;25.69;19.10
51081;BME280;37130;55.670;37.596;2023-04-24T09:00:21;99526.25;;;25.99;18.63
51081;BME280;37130;55.670;37.596;2023-04-24T09:02:49;99515.81;;;25.47;19.02
51081;BME280;37130;55.670;37.596;2023-04-24T09:05:18;99521.22;;;25.14;18.79
51081;BME280;37130;55.670;37.596;2023-04-24T09:07:53;99507.84;;;25.05;19.25
51081;BME280;37130;55.670;37.596;2023-04-24T09:10:24;99512.38;;;24.71;19.09
51081;BME280;37130;55.670;37.596;2023-04-24T09:12:52;99508.28;;;24.76;19.18
51081;BME280;37130;55.670;37.596;2023-04-24T09:15:20;99510.16;;;24.75;19.19
51081;BME280;37130;55.670;37.596;2023-04-24T09:17:47;99506.94;;;24.71;19.50
51081;BME280;37130;55.670;37.596;2023-04-24T09:20:15;99514.22;;;24.71;19.21
51081;BME280;37130;55.670;37.596;2023-04-24T09:22:44;99485.16;;;24.39;19.37
51081;BME280;37130;55.670;37.596;2023-04-24T09:25:12;99500.41;;;24.40;19.82
51081;BME280;37130;55.670;37.596;2023-04-24T09:27:44;99502.00;;;24.59;19.76
51081;BME280;37130;55.670;37.596;2023-04-24T09:30:12;99508.28;;;24.67;19.86
51081;BME280;37130;55.670;37.596;2023-04-24T09:32:40;99504.53;;;24.18;19.75
51081;BME280;37130;55.670;37.596;2023-04-24T09:35:13;99503.47;;;23.06;20.36
51081;BME280;37130;55.670;37.596;2023-04-24T09:37:45;99501.53;;;22.99;21.18
51081;BME280;37130;55.670;37.596;2023-04-24T09:40:15;99491.66;;;23.51;21.16
51081;BME280;37130;55.670;37.596;2023-04-24T09:42:55;99489.22;;;23.92;20.93
51081;BME280;37130;55.670;37.596;2023-04-24T09:45:35;99489.28;;;24.09;20.92
51081;BME280;37130;55.670;37.596;2023-04-24T09:48:03;99478.53;;;24.25;20.46
51081;BME280;37130;55.670;37.596;2023-04-24T09:50:31;99481.19;;;24.09;20.51
51081;BME280;37130;55.670;37.596;2023-04-24T09:53:05;99470.44;;;23.91;21.02
51081;BME280;37130;55.670;37.596;2023-04-24T09:55:41;99472.22;;;23.74;21.37
51081;BME280;37130;55.670;37.596;2023-04-24T09:58:12;99485.00;;;23.90;20.93
51081;BME280;37130;55.670;37.596;2023-04-24T10:00:40;99475.44;;;24.12;20.64
51081;BME280;37130;55.670;37.596;2023-04-24T10:03:08;99478.84;;;24.22;20.22
51081;BME280;37130;55.670;37.596;2023-04-24T10:05:36;99467.09;;;24.05;19.89
51081;BME280;37130;55.670;37.596;2023-04-24T10:08:09;99479.16;;;23.50;20.58
51081;BME280;37130;55.670;37.596;2023-04-24T10:10:41;99468.06;;;23.35;20.84
51081;BME280;37130;55.670;37.596;2023-04-24T10:13:10;99467.44;;;23.24;20.57
51081;BME280;37130;55.670;37.596;2023-04-24T10:15:39;99468.00;;;22.91;20.76
51081;BME280;37130;55.670;37.596;2023-04-24T10:18:08;99465.56;;;22.80;21.26
51081;BME280;37130;55.670;37.596;2023-04-24T10:20:38;99465.69;;;22.79;21.22
51081;BME280;37130;55.670;37.596;2023-04-24T10:23:06;99443.50;;;22.67;20.58
51081;BME280;37130;55.670;37.596;2023-04-24T10:25:35;99465.16;;;22.57;21.26
51081;BME280;37130;55.670;37.596;2023-04-24T10:28:04;99460.44;;;22.41;21.37
51081;BME280;37130;55.670;37.596;2023-04-24T10:30:35;99461.84;;;22.63;21.68
51081;BME280;37130;55.670;37.596;2023-04-24T10:33:03;99453.22;;;22.95;21.44
51081;BME280;37130;55.670;37.596;2023-04-24T10:35:35;99458.25;;;23.08;21.37
51081;BME280;37130;55.670;37.596;2023-04-24T10:38:08;99451.97;;;23.08;21.57
51081;BME280;37130;55.670;37.596;2023-04-24T10:40:36;99421.06;;;22.66;22.07
51081;BME280;37130;55.670;37.596;2023-04-24T10:43:05;99452.28;;;22.87;22.01
51081;BME280;37130;55.670;37.596;2023-04-24T10:45:35;99447.09;;;22.93;21.60
51081;BME280;37130;55.670;37.596;2023-04-24T10:48:04;99447.91;;;23.04;21.80
51081;BME280;37130;55.670;37.596;2023-04-24T10:50:44;99446.19;;;22.85;21.29
51081;BME280;37130;55.670;37.596;2023-04-24T10:53:24;99438.63;;;22.70;21.49
51081;BME280;37130;55.670;37.596;2023-04-24T10:55:59;99447.66;;;22.97;22.23
51081;BME280;37130;55.670;37.596;2023-04-24T10:58:43;99454.56;;;23.35;22.18
51081;BME280;37130;55.670;37.596;2023-04-24T11:01:29;99447.31;;;23.44;22.05
51081;BME280;37130;55.670;37.596;2023-04-24T11:03:59;99384.66;;;23.14;21.70
51081;BME280;37130;55.670;37.596;2023-04-24T11:06:30;99440.72;;;23.38;22.00
51081;BME280;37130;55.670;37.596;2023-04-24T11:09:10;99431.94;;;23.45;22.22
51081;BME280;37130;55.670;37.596;2023-04-24T11:11:45;99432.44;;;23.66;21.74
51081;BME280;37130;55.670;37.596;2023-04-24T11:14:14;99435.34;;;23.47;21.24
51081;BME280;37130;55.670;37.596;2023-04-24T11:16:52;99390.50;;;22.66;21.57
51081;BME280;37130;55.670;37.596;2023-04-24T11:19:26;99426.75;;;22.81;21.28
51081;BME280;37130;55.670;37.596;2023-04-24T11:27:15;99424.81;;;22.91;21.06
51081;BME280;37130;55.670;37.596;2023-04-24T11:35:14;99404.69;;;22.68;21.42
51081;BME280;37130;55.670;37.596;2023-04-24T11:37:43;99399.66;;;22.73;21.20
51081;BME280;37130;55.670;37.596;2023-04-24T11:40:24;99403.28;;;22.82;21.25
51081;BME280;37130;55.670;37.596;2023-04-24T11:42:53;99401.44;;;22.82;21.45
51081;BME280;37130;55.670;37.596;2023-04-24T11:45:25;99399.34;;;22.94;21.48
51081;BME280;37130;55.670;37.596;2023-04-24T11:47:53;99396.97;;;22.73;21.46
51081;BME280;37130;55.670;37.596;2023-04-24T11:50:25;99383.88;;;22.42;21.06
51081;BME280;37130;55.670;37.596;2023-04-24T11:52:54;99322.41;;;22.18;21.34
51081;BME280;37130;55.670;37.596;2023-04-24T11:55:23;99382.72;;;22.45;21.05
51081;BME280;37130;55.670;37.596;2023-04-24T11:57:55;99374.72;;;22.35;20.97
51081;BME280;37130;55.670;37.596;2023-04-24T12:00:26;99367.69;;;22.42;21.10
51081;BME280;37130;55.670;37.596;2023-04-24T12:03:08;99374.16;;;22.31;21.21
51081;BME280;37130;55.670;37.596;2023-04-24T12:05:37;99376.31;;;22.28;21.33
51081;BME280;37130;55.670;37.596;2023-04-24T12:08:05;99370.75;;;22.29;21.33
51081;BME280;37130;55.670;37.596;2023-04-24T12:10:33;99360.44;;;22.25;21.55
51081;BME280;37130;55.670;37.596;2023-04-24T12:13:02;99326.25;;;21.80;21.47
51081;BME280;37130;55.670;37.596;2023-04-24T12:15:29;99373.34;;;22.03;21.57
51081;BME280;37130;55.670;37.596;2023-04-24T12:17:59;99331.69;;;21.70;21.36
51081;BME280;37130;55.670;37.596;2023-04-24T12:20:28;99365.38;;;21.84;21.69
51081;BME280;37130;55.670;37.596;2023-04-24T12:22:57;99319.28;;;21.59;21.36
51081;BME280;37130;55.670;37.596;2023-04-24T12:25:27;99359.34;;;21.90;21.20
51081;BME280;37130;55.670;37.596;2023-04-24T12:28:08;99360.50;;;21.87;21.78
51081;BME280;37130;55.670;37.596;2023-04-24T12:30:44;99293.94;;;21.70;21.52
51081;BME280;37130;55.670;37.596;2023-04-24T12:33:12;99357.25;;;22.29;20.99
51081;BME280;37130;55.670;37.596;2023-04-24T12:35:40;99355.78;;;22.17;20.93
51081;BME280;37130;55.670;37.596;2023-04-24T12:38:10;99349.38;;;21.82;20.91
51081;BME280;37130;55.670;37.596;2023-04-24T12:40:41;99346.72;;;21.73;21.38
51081;BME280;37130;55.670;37.596;2023-04-24T12:43:19;99325.84;;;21.75;21.28
51081;BME280;37130;55.670;37.596;2023-04-24T12:45:48;99323.31;;;21.91;21.64
51081;BME280;37130;55.670;37.596;2023-04-24T12:48:15;99347.09;;;22.23;21.31
51081;BME280;37130;55.670;37.596;2023-04-24T12:50:43;99349.22;;;22.02;21.80
51081;BME280;37130;55.670;37.596;2023-04-24T12:53:14;99346.66;;;21.82;21.75
51081;BME280;37130;55.670;37.596;2023-04-24T12:55:41;99341.34;;;21.35;22.19
51081;BME280;37130;55.670;37.596;2023-04-24T12:58:09;99316.91;;;21.09;22.23
51081;BME280;37130;55.670;37.596;2023-04-24T13:00:38;99299.94;;;20.99;22.30
51081;BME280;37130;55.670;37.596;2023-04-24T13:03:06;99333.44;;;21.24;21.98
51081;BME280;37130;55.670;37.596;2023-04-24T13:05:34;99331.97;;;21.30;21.88
51081;BME280;37130;55.670;37.596;2023-04-24T13:08:02;99334.97;;;21.27;22.00
51081;BME280;37130;55.670;37.596;2023-04-24T13:10:30;99322.00;;;21.12;22.22
51081;BME280;37130;55.670;37.596;2023-04-24T13:12:58;99280.91;;;20.63;22.48
51081;BME280;37130;55.670;37.596;2023-04-24T13:15:25;99330.19;;;20.73;22.50
51081;BME280;37130;55.670;37.596;2023-04-24T13:17:53;99309.22;;;20.48;22.61
51081;BME280;37130;55.670;37.596;2023-04-24T13:20:21;99290.13;;;20.31;22.87
51081;BME280;37130;55.670;37.596;2023-04-24T13:22:49;99324.09;;;20.52;22.87
51081;BME280;37130;55.670;37.596;2023-04-24T13:25:17;99308.53;;;20.65;22.95
51081;BME280;37130;55.670;37.596;2023-04-24T13:27:46;99304.66;;;20.77;22.64
51081;BME280;37130;55.670;37.596;2023-04-24T13:30:13;99301.94;;;20.97;22.36
51081;BME280;37130;55.670;37.596;2023-04-24T13:32:41;99275.88;;;20.88;22.13
51081;BME280;37130;55.670;37.596;2023-04-24T13:35:09;99304.41;;;21.18;22.06
51081;BME280;37130;55.670;37.596;2023-04-24T13:37:37;99304.78;;;21.33;22.08
51081;BME280;37130;55.670;37.596;2023-04-24T13:40:04;99291.66;;;21.48;21.88
51081;BME280;37130;55.670;37.596;2023-04-24T13:42:33;99298.06;;;21.47;22.32
51081;BME280;37130;55.670;37.596;2023-04-24T13:45:01;99290.16;;;21.63;22.34
51081;BME280;37130;55.670;37.596;2023-04-24T13:47:49;99251.19;;;21.57;22.04
51081;BME280;37130;55.670;37.596;2023-04-24T13:50:20;99293.03;;;21.97;21.95
51081;BME280;37130;55.670;37.596;2023-04-24T13:52:47;99296.81;;;22.04;22.12
51081;BME280;37130;55.670;37.596;2023-04-24T13:55:15;99295.22;;;22.12;22.11
51081;BME280;37130;55.670;37.596;2023-04-24T13:57:42;99293.03;;;22.15;21.95
51081;BME280;37130;55.670;37.596;2023-04-24T14:00:11;99287.13;;;22.12;22.12
51081;BME280;37130;55.670;37.596;2023-04-24T14:02:38;99268.06;;;21.95;21.68
51081;BME280;37130;55.670;37.596;2023-04-24T14:05:07;99291.28;;;21.88;21.70
51081;BME280;37130;55.670;37.596;2023-04-24T14:07:34;99283.09;;;21.62;21.18
51081;BME280;37130;55.670;37.596;2023-04-24T14:10:02;99277.66;;;21.34;21.59
51081;BME280;37130;55.670;37.596;2023-04-24T14:12:29;99276.13;;;21.32;21.57
51081;BME280;37130;55.670;37.596;2023-04-24T14:14:57;99274.84;;;21.36;21.26
51081;BME280;37130;55.670;37.596;2023-04-24T14:17:25;99269.75;;;21.33;21.64
51081;BME280;37130;55.670;37.596;2023-04-24T14:19:52;99274.66;;;21.37;21.56
51081;BME280;37130;55.670;37.596;2023-04-24T14:22:23;99277.88;;;21.23;22.11
51081;BME280;37130;55.670;37.596;2023-04-24T14:24:50;99267.34;;;21.30;22.29
51081;BME280;37130;55.670;37.596;2023-04-24T14:27:18;99271.75;;;21.31;22.03
51081;BME280;37130;55.670;37.596;2023-04-24T14:29:46;99274.13;;;21.34;22.09
51081;BME280;37130;55.670;37.596;2023-04-24T14:32:13;99260.66;;;21.34;22.25
51081;BME280;37130;55.670;37.596;2023-04-24T14:34:42;99268.94;;;21.22;22.22
51081;BME280;37130;55.670;37.596;2023-04-24T14:37:10;99262.06;;;21.10;22.41
51081;BME280;37130;55.670;37.596;2023-04-24T14:39:37;99274.16;;;20.96;22.52
51081;BME280;37130;55.670;37.596;2023-04-24T14:42:04;99268.38;;;20.91;22.65
51081;BME280;37130;55.670;37.596;2023-04-24T14:44:32;99261.31;;;20.81;22.84
51081;BME280;37130;55.670;37.596;2023-04-24T14:47:00;99269.41;;;20.71;22.77
51081;BME280;37130;55.670;37.596;2023-04-24T14:49:28;99267.75;;;20.70;22.87
51081;BME280;37130;55.670;37.596;2023-04-24T14:51:55;99232.06;;;20.58;22.59
51081;BME280;37130;55.670;37.596;2023-04-24T14:54:23;99255.00;;;20.62;22.79
51081;BME280;37130;55.670;37.596;2023-04-24T14:56:51;99230.66;;;20.34;22.73
51081;BME280;37130;55.670;37.596;2023-04-24T14:59:18;99258.81;;;20.40;22.90
51081;BME280;37130;55.670;37.596;2023-04-24T15:01:47;99268.31;;;20.25;23.09
51081;BME280;37130;55.670;37.596;2023-04-24T15:04:14;99263.09;;;20.13;23.03
51081;BME280;37130;55.670;37.596;2023-04-24T15:06:43;99262.13;;;20.05;23.13
51081;BME280;37130;55.670;37.596;2023-04-24T15:09:10;99256.47;;;19.98;23.34
51081;BME280;37130;55.670;37.596;2023-04-24T15:11:38;99266.94;;;19.82;23.52
51081;BME280;37130;55.670;37.596;2023-04-24T15:14:06;99259.16;;;19.79;23.44
51081;BME280;37130;55.670;37.596;2023-04-24T15:16:33;99261.09;;;19.67;24.25
51081;BME280;37130;55.670;37.596;2023-04-24T15:19:01;99232.75;;;19.34;24.09
51081;BME280;37130;55.670;37.596;2023-04-24T15:21:28;99258.22;;;19.49;23.64
51081;BME280;37130;55.670;37.596;2023-04-24T15:23:56;99255.66;;;19.38;23.63
51081;BME280;37130;55.670;37.596;2023-04-24T15:26:24;99252.41;;;19.34;24.03
51081;BME280;37130;55.670;37.596;2023-04-24T15:28:52;99255.81;;;19.36;23.81
51081;BME280;37130;55.670;37.596;2023-04-24T15:31:19;99256.06;;;19.33;23.97
51081;BME280;37130;55.670;37.596;2023-04-24T15:33:47;99252.41;;;19.34;24.07
51081;BME280;37130;55.670;37.596;2023-04-24T15:36:17;99256.94;;;19.34;24.13
51081;BME280;37130;55.670;37.596;2023-04-24T15:38:45;99250.53;;;19.25;24.35
51081;BME280;37130;55.670;37.596;2023-04-24T15:41:13;99247.41;;;19.20;24.44
51081;BME280;37130;55.670;37.596;2023-04-24T15:43:40;99244.53;;;19.12;24.38
51081;BME280;37130;55.670;37.596;2023-04-24T15:46:09;99246.97;;;19.15;24.63
51081;BME280;37130;55.670;37.596;2023-04-24T15:48:37;99241.34;;;19.18;24.71
51081;BME280;37130;55.670;37.596;2023-04-24T15:51:07;99238.22;;;19.22;24.41
51081;BME280;37130;55.670;37.596;2023-04-24T15:53:35;99238.38;;;19.21;24.35
51081;BME280;37130;55.670;37.596;2023-04-24T15:56:03;99243.75;;;19.21;24.57
51081;BME280;37130;55.670;37.596;2023-04-24T15:58:31;99245.44;;;19.22;24.19
51081;BME280;37130;55.670;37.596;2023-04-24T16:00:59;99252.63;;;19.21;24.38
51081;BME280;37130;55.670;37.596;2023-04-24T16:03:26;99251.06;;;19.19;24.52
51081;BME280;37130;55.670;37.596;2023-04-24T16:05:54;99253.59;;;19.11;24.84
51081;BME280;37130;55.670;37.596;2023-04-24T16:08:22;99243.09;;;18.98;24.73
51081;BME280;37130;55.670;37.596;2023-04-24T16:10:49;99228.88;;;18.76;25.04
51081;BME280;37130;55.670;37.596;2023-04-24T16:13:18;99258.97;;;18.80;24.76
51081;BME280;37130;55.670;37.596;2023-04-24T16:15:46;99259.25;;;18.77;24.80
51081;BME280;37130;55.670;37.596;2023-04-24T16:18:14;99241.03;;;18.59;24.80
51081;BME280;37130;55.670;37.596;2023-04-24T16:20:43;99256.28;;;18.59;24.65
51081;BME280;37130;55.670;37.596;2023-04-24T16:23:11;99195.03;;;18.12;25.08
51081;BME280;37130;55.670;37.596;2023-04-24T16:25:38;99244.16;;;18.34;25.04
51081;BME280;37130;55.670;37.596;2023-04-24T16:28:06;99259.97;;;18.37;25.00
51081;BME280;37130;55.670;37.596;2023-04-24T16:30:33;99255.13;;;18.31;25.39
51081;BME280;37130;55.670;37.596;2023-04-24T16:33:03;99254.81;;;18.24;25.26
51081;BME280;37130;55.670;37.596;2023-04-24T16:35:34;99264.47;;;18.15;26.00
51081;BME280;37130;55.670;37.596;2023-04-24T16:38:02;99264.72;;;18.12;26.12
51081;BME280;37130;55.670;37.596;2023-04-24T16:40:31;99261.84;;;18.04;25.82
51081;BME280;37130;55.670;37.596;2023-04-24T16:42:58;99249.72;;;17.89;26.18
51081;BME280;37130;55.670;37.596;2023-04-24T16:45:25;99259.75;;;17.87;25.98
51081;BME280;37130;55.670;37.596;2023-04-24T16:47:54;99267.16;;;17.83;26.36
51081;BME280;37130;55.670;37.596;2023-04-24T16:50:21;99227.16;;;17.59;26.51
51081;BME280;37130;55.670;37.596;2023-04-24T16:52:49;99256.31;;;17.73;26.43
51081;BME280;37130;55.670;37.596;2023-04-24T16:55:17;99262.78;;;17.71;26.88
51081;BME280;37130;55.670;37.596;2023-04-24T16:57:44;99268.44;;;17.57;26.47
51081;BME280;37130;55.670;37.596;2023-04-24T17:00:12;99269.53;;;17.54;26.94
51081;BME280;37130;55.670;37.596;2023-04-24T17:02:40;99264.06;;;17.44;27.37
51081;BME280;37130;55.670;37.596;2023-04-24T17:05:08;99263.75;;;17.38;27.82
51081;BME280;37130;55.670;37.596;2023-04-24T17:07:35;99269.56;;;17.31;27.66
51081;BME280;37130;55.670;37.596;2023-04-24T17:10:04;99270.81;;;17.27;27.90
51081;BME280;37130;55.670;37.596;2023-04-24T17:12:32;99273.25;;;17.19;27.96
51081;BME280;37130;55.670;37.596;2023-04-24T17:14:59;99248.22;;;16.98;27.93
51081;BME280;37130;55.670;37.596;2023-04-24T17:17:28;99280.06;;;17.12;28.03
51081;BME280;37130;55.670;37.596;2023-04-24T17:19:56;99288.09;;;17.12;28.48
51081;BME280;37130;55.670;37.596;2023-04-24T17:22:29;99252.34;;;16.91;28.71
51081;BME280;37130;55.670;37.596;2023-04-24T17:24:57;99278.72;;;17.06;28.57
51081;BME280;37130;55.670;37.596;2023-04-24T17:27:25;99284.94;;;17.07;28.50
51081;BME280;37130;55.670;37.596;2023-04-24T17:29:52;99228.13;;;16.70;28.82
51081;BME280;37130;55.670;37.596;2023-04-24T17:32:20;99287.13;;;17.02;28.98
51081;BME280;37130;55.670;37.596;2023-04-24T17:34:48;99291.97;;;16.97;29.16
51081;BME280;37130;55.670;37.596;2023-04-24T17:37:15;99288.22;;;16.88;29.83
51081;BME280;37130;55.670;37.596;2023-04-24T17:39:46;99290.03;;;16.88;31.06
51081;BME280;37130;55.670;37.596;2023-04-24T17:42:13;99295.63;;;16.96;29.93
51081;BME280;37130;55.670;37.596;2023-04-24T17:44:41;99259.41;;;16.80;30.19
51081;BME280;37130;55.670;37.596;2023-04-24T17:47:08;99294.66;;;16.97;30.40
51081;BME280;37130;55.670;37.596;2023-04-24T17:49:36;99295.25;;;16.89;30.37
51081;BME280;37130;55.670;37.596;2023-04-24T17:52:05;99298.78;;;16.90;30.52
51081;BME280;37130;55.670;37.596;2023-04-24T17:54:33;99303.41;;;16.88;30.00
51081;BME280;37130;55.670;37.596;2023-04-24T17:57:00;99296.00;;;16.80;30.12
51081;BME280;37130;55.670;37.596;2023-04-24T17:59:28;99306.16;;;16.75;30.00
51081;BME280;37130;55.670;37.596;2023-04-24T18:01:55;99299.47;;;16.69;30.25